• Join FlightAware (Why Join?)
  • Login
  • US Flag 
09:36PM EST


 

Airport Tracker/Info


-or-


 

Live Flight TrackerFlight Track Log ✈ N6ZQ ✈ 01-Aug-2014 ✈ KFFX - KRMN

Flight Track Log - Related Links

Times and Time Zones

All times are in EDT time to prevent confusion due to time zone crossing. See the N6ZQ flight status page for this flight to view local times or setup timezone preferences in your user account.

Time Position Orientation Groundspeed Altitude Reporting Facility
EDT Latitude Longitude Course Direction KTS MPH feet Rate Location/Type
10:34AM 43.4242 -86.7906 116° Southeast 206 237 17,500  Level Chicago Center
10:35AM 43.3989 -86.7178 116° Southeast 208 239 17,500  Level Chicago Center
10:36AM 43.3747 -86.6453 115° Southeast 208 239 17,500  Level Chicago Center
10:38AM 43.3506 -86.5725 115° Southeast 208 239 17,500 -60 Level Chicago Center
10:39AM 43.3250 -86.4983 115° Southeast 211 243 17,400 -60 Descending Chicago Center
10:40AM 43.2958 -86.4119 115° Southeast 211 243 17,400  Level Chicago Center
10:41AM 43.2714 -86.3381 114° Southeast 211 243 17,400  Level Chicago Center
10:42AM 43.2461 -86.2658 116° Southeast 211 243 17,400  Level Chicago Center
10:43AM 43.2225 -86.1942 114° Southeast 210 242 17,400 -120 Level Chicago Center
10:45AM 43.1547 -86.0039 115° Southeast 212 244 17,100 -120 Descending Cleveland Center
10:46AM 43.1183 -85.9314 124° Southeast 220 253 17,100 -60 Level Cleveland Center
10:47AM 43.0861 -85.8636 123° Southeast 217 250 17,000 -60 Descending Cleveland Center
10:48AM 43.0517 -85.7944 124° Southeast 216 249 17,000  Level Cleveland Center
10:49AM 43.0194 -85.7275 123° Southeast 214 246 17,000  Level Cleveland Center
10:50AM 42.9864 -85.6594 124° Southeast 214 246 17,000  Level Cleveland Center
10:51AM 42.9536 -85.5925 124° Southeast 213 245 17,000  Level Cleveland Center
10:52AM 42.9144 -85.5131 124° Southeast 212 244 17,000  Level Cleveland Center
10:54AM 42.8819 -85.4464 124° Southeast 212 244 17,000  Level Cleveland Center
10:55AM 42.8494 -85.3817 124° Southeast 210 242 17,000  Level Cleveland Center
10:56AM 42.8183 -85.3164 123° Southeast 209 241 17,000  Level Cleveland Center
10:57AM 42.7864 -85.2514 124° Southeast 209 241 17,000  Level Cleveland Center
10:58AM 42.7539 -85.1858 124° Southeast 208 239 17,000 -60 Level Cleveland Center
10:59AM 42.7158 -85.1089 124° Southeast 206 237 16,900 -60 Descending Chicago Center
11:00AM 42.6783 -85.0314 123° Southeast 206 237 16,900  Level Chicago Center
11:01AM 42.6456 -84.9683 125° Southeast 206 237 16,900  Level Chicago Center
11:02AM 42.6203 -84.9164 123° Southeast 206 237 17,000  Climbing Cleveland Center
11:03AM 42.5878 -84.8519 124° Southeast 206 237 17,000  Level Cleveland Center
11:04AM 42.5556 -84.7869 124° Southeast 206 237 17,000  Level Cleveland Center
11:05AM 42.5164 -84.7089 124° Southeast 208 239 17,000  Level Cleveland Center
11:06AM 42.4872 -84.6519 125° Southeast 208 239 17,000  Level Cleveland Center
11:07AM 42.4486 -84.5742 124° Southeast 209 241 17,000  Level Cleveland Center
11:08AM 42.4150 -84.5097 125° Southeast 210 242 17,000  Level Cleveland Center
11:09AM 42.3825 -84.4450 124° Southeast 209 241 17,000  Level Cleveland Center
11:10AM 42.3492 -84.3800 125° Southeast 209 241 17,000  Level Cleveland Center
11:11AM 42.3167 -84.3161 125° Southeast 209 241 17,000  Level Cleveland Center
11:12AM 42.2772 -84.2389 125° Southeast 209 241 17,000  Level Cleveland Center
11:13AM 42.2453 -84.1750 124° Southeast 209 241 17,000  Level Cleveland Center
11:14AM 42.2122 -84.1114 125° Southeast 209 241 17,000  Level Cleveland Center
11:15AM 42.1792 -84.0478 125° Southeast 208 239 17,000  Level Cleveland Center
11:16AM 42.1464 -83.9836 125° Southeast 208 239 17,000  Level Cleveland Center
11:17AM 42.1058 -83.9058 125° Southeast 211 243 17,100  Climbing Cleveland Center
11:18AM 42.0722 -83.8417 125° Southeast 211 243 17,000 -60 Descending Cleveland Center
11:19AM 42.0400 -83.7769 124° Southeast 211 243 17,000  Level Cleveland Center
11:20AM 42.0064 -83.7117 125° Southeast 211 243 17,000  Level Cleveland Center
11:21AM 41.9717 -83.6469 126° Southeast 212 244 17,000  Level Cleveland Center
11:23AM 41.9322 -83.5683 124° Southeast 213 245 17,000  Level Cleveland Center
11:24AM 41.8972 -83.5044 126° Southeast 213 245 17,000  Level Cleveland Center
11:25AM 41.8644 -83.4386 124° Southeast 213 245 17,000  Level Cleveland Center
11:26AM 41.8303 -83.3739 125° Southeast 213 245 17,000  Level Cleveland Center
11:27AM 41.7956 -83.3100 126° Southeast 213 245 17,000  Level Cleveland Center
11:28AM 41.7617 -83.2450 125° Southeast 214 246 17,000  Level Cleveland Center
11:29AM 41.7211 -83.1678 125° Southeast 213 245 17,000  Level Cleveland Center
11:30AM 41.6872 -83.1039 125° Southeast 213 245 17,000  Level Cleveland Center
11:31AM 41.6531 -83.0389 125° Southeast 213 245 17,000  Level Cleveland Center
11:32AM 41.6167 -82.9722 126° Southeast 213 245 17,000  Level Cleveland Center
11:33AM 41.5836 -82.9075 124° Southeast 212 244 17,000  Level Cleveland Center
11:34AM 41.5489 -82.8436 126° Southeast 212 244 17,000  Level Cleveland Center
11:35AM 41.5142 -82.7789 126° Southeast 212 244 17,000  Level Cleveland Center
11:36AM 41.4744 -82.7056 126° Southeast 212 244 17,000  Level Cleveland Center
11:37AM 41.4400 -82.6414 126° Southeast 211 243 17,000  Level Cleveland Center
11:38AM 41.4064 -82.5786 126° Southeast 211 243 17,000  Level Cleveland Center
11:39AM 41.3731 -82.5153 125° Southeast 210 242 17,000  Level Cleveland Center
11:40AM 41.3383 -82.4519 126° Southeast 210 242 17,000  Level Cleveland Center
11:41AM 41.3042 -82.3903 126° Southeast 208 239 17,000  Level Cleveland Center
11:42AM 41.2650 -82.3175 126° Southeast 208 239 17,000  Level Cleveland Center
11:43AM 41.2311 -82.2567 127° Southeast 207 238 17,000  Level Cleveland Center
11:44AM 41.1972 -82.1933 125° Southeast 207 238 17,000  Level Cleveland Center
11:45AM 41.1642 -82.1317 125° Southeast 207 238 17,000  Level Cleveland Center
11:46AM 41.1294 -82.0717 128° Southeast 207 238 17,000  Level Cleveland Center
11:47AM 41.0953 -82.0078 125° Southeast 207 238 17,000  Level Cleveland Center
11:48AM 41.0544 -81.9350 127° Southeast 208 239 17,000  Level Cleveland Center
11:49AM 41.0194 -81.8708 126° Southeast 211 243 17,000  Level Cleveland Center
11:50AM 40.9844 -81.8064 126° Southeast 212 244 17,000  Level Cleveland Center
11:51AM 40.9492 -81.7425 126° Southeast 212 244 17,000  Level Cleveland Center
11:53AM 40.9136 -81.6786 126° Southeast 213 245 17,000  Level Cleveland Center
11:54AM 40.8783 -81.6156 126° Southeast 213 245 17,000  Level Cleveland Center
11:55AM 40.8364 -81.5411 127° Southeast 214 246 17,000  Level Cleveland Center
11:56AM 40.8014 -81.4772 126° Southeast 214 246 17,000  Level Cleveland Center
11:57AM 40.7656 -81.4133 127° Southeast 214 246 17,000  Level Cleveland Center
11:58AM 40.7306 -81.3506 126° Southeast 214 246 17,000  Level Cleveland Center
11:59AM 40.6942 -81.2872 127° Southeast 214 246 17,000  Level Cleveland Center
12:00PM 40.6592 -81.2242 126° Southeast 214 246 17,000  Level Cleveland Center
12:01PM 40.6183 -81.1514 126° Southeast 212 244 17,000  Level Cleveland Center
12:02PM 40.5906 -81.0836 118° Southeast 213 245 17,000  Level Cleveland Center
12:03PM 40.5628 -81.0153 118° Southeast 213 245 17,000  Level Cleveland Center
12:04PM 40.5317 -80.9486 122° Southeast 213 245 17,000  Level Cleveland Center
12:05PM 40.4956 -80.8886 128° Southeast 213 245 17,000  Level Cleveland Center
12:06PM 40.4528 -80.8158 128° Southeast 212 244 17,000  Level Cleveland Center
12:07PM 40.4183 -80.7544 126° Southeast 211 243 17,000  Level Cleveland Center
12:08PM 40.3831 -80.6942 128° Southeast 211 243 17,000  Level Cleveland Center
12:09PM 40.3483 -80.6344 127° Southeast 210 242 17,000  Level Cleveland Center
12:10PM 40.3131 -80.5742 127° Southeast 210 242 17,000  Level Cleveland Center
12:11PM 40.2711 -80.5028 128° Southeast 210 242 17,000  Level Cleveland Center
12:12PM 40.2367 -80.4439 127° Southeast 207 238 17,000  Level Cleveland Center
12:13PM 40.2019 -80.3850 128° Southeast 207 238 17,000  Level Cleveland Center
12:14PM 40.1678 -80.3264 127° Southeast 207 238 17,000  Level Cleveland Center
12:15PM 40.1339 -80.2675 127° Southeast 207 238 17,000  Level Cleveland Center
12:16PM 40.0914 -80.1981 129° Southeast 206 237 17,000  Level Cleveland Center
12:17PM 40.0572 -80.1397 127° Southeast 206 237 17,000  Level Cleveland Center
12:18PM 40.0228 -80.0806 127° Southeast 206 237 17,000  Level Cleveland Center
12:19PM 39.9875 -80.0225 128° Southeast 206 237 17,000  Level Cleveland Center
12:20PM 39.9525 -79.9644 128° Southeast 205 236 17,000  Level Cleveland Center
12:22PM 39.9111 -79.8933 127° Southeast 205 236 17,000  Level Cleveland Center
12:23PM 39.8750 -79.8353 129° Southeast 205 236 17,000  Level Cleveland Center
12:24PM 39.8414 -79.7756 126° Southeast 205 236 17,000  Level Cleveland Center
12:25PM 39.8047 -79.7167 129° Southeast 208 239 17,000  Level Cleveland Center
12:26PM 39.7700 -79.6578 127° Southeast 208 239 17,000  Level Cleveland Center
12:27PM 39.7344 -79.5997 129° Southeast 207 238 17,000  Level Cleveland Center
12:28PM 39.6928 -79.5297 128° Southeast 206 237 17,000  Level Cleveland Center
12:29PM 39.6583 -79.4719 128° Southeast 203 234 17,000  Level Cleveland Center
12:30PM 39.6225 -79.4153 129° Southeast 203 234 17,000  Level Cleveland Center
12:31PM 39.5881 -79.3578 128° Southeast 203 234 17,000 -60 Level Cleveland Center
12:32PM 39.5531 -79.3008 129° Southeast 203 234 16,900 -60 Descending Cleveland Center
12:33PM 39.5183 -79.2431 128° Southeast 203 234 16,900  Level Cleveland Center
12:34PM 39.4775 -79.1761 128° Southeast 202 232 16,900  Level Cleveland Center
12:35PM 39.4433 -79.1200 128° Southeast 200 230 16,900  Level Cleveland Center
12:36PM 39.4089 -79.0644 129° Southeast 200 230 16,900  Level Cleveland Center
12:37PM 39.3758 -79.0092 128° Southeast 199 229 16,900 -180 Level Cleveland Center
12:38PM 39.3364 -78.9431 128° Southeast 198 228 16,600 -840 Descending Cleveland Center
12:39PM 39.2953 -78.8778 129° Southeast 233 268 15,200 -1,320 Descending Cleveland Center
12:40PM 39.2533 -78.8100 129° Southeast 243 280 13,900 -1,080 Descending Cleveland Center
12:41PM 39.2153 -78.7472 128° Southeast 224 258 13,000 -780 Descending Cleveland Center
12:42PM 39.1761 -78.6856 129° Southeast 223 257 12,300 -660 Descending Cleveland Center
12:43PM 39.1389 -78.6256 129° Southeast 218 251 11,700 -600 Descending Cleveland Center
12:44PM 39.0936 -78.5550 130° Southeast 217 250 11,000 -600 Descending Washington Center
12:45PM 39.0575 -78.4972 129° Southeast 211 243 10,400 -600 Descending Washington Center
12:46PM 39.0214 -78.4397 129° Southeast 211 243 9,900 -540 Descending Washington Center
12:47PM 38.9872 -78.3850 129° Southeast 211 243 9,400 -420 Descending Washington Center
12:48PM 38.9553 -78.3331 128° Southeast 205 236 9,100 -240 Descending Washington Center
12:49PM 38.9208 -78.2811 130° Southeast 200 230 9,000 -300 Descending Washington Center
12:50PM 38.8886 -78.2292 129° Southeast 195 224 8,500 -540 Descending Washington Center
12:53PM 38.8000 -78.1000 131° Southeast 189 217 7,200 -480 Descending Potomac TRACON
12:54PM 38.7667 -78.0500 131° Southeast 180 207 7,000 -120 Descending Potomac TRACON
12:55PM 38.7333 -78.0167 142° Southeast 168 193 7,000  Level Potomac TRACON
12:56PM 38.7000 -77.9667 130° Southeast 165 190 7,000 -300 Level Potomac TRACON
12:57PM 38.6833 -77.9167 113° Southeast 177 204 6,500 -600 Descending Potomac TRACON
12:58PM 38.6500 -77.8667 130° Southeast 186 214 5,900 -600 Descending Potomac TRACON
12:59PM 38.6167 -77.8167 130° Southeast 189 217 5,400 -600 Descending Potomac TRACON
01:00PM 38.5833 -77.7500 123° Southeast 194 223 4,700 -660 Descending Potomac TRACON
01:01PM 38.5500 -77.7000 130° Southeast 194 223 4,100 -420 Descending Potomac TRACON
01:02PM 38.5167 -77.6500 130° Southeast 182 209 4,000 -180 Descending Potomac TRACON
01:03PM 38.4833 -77.6000 130° Southeast 173 199 3,800 -480 Descending Potomac TRACON
01:04PM 38.4667 -77.5500 113° Southeast 179 206 3,200 -600 Descending Potomac TRACON
01:05PM 38.4333 -77.5167 142° Southeast 165 190 2,600 -900 Descending Potomac TRACON
01:06PM 38.3833 -77.4833 152° Southeast 174 200 1,400 -780 Descending Potomac TRACON
01:07PM 38.3500 -77.4500 142° Southeast 171 197 1,000 -300 Descending Potomac TRACON
01:08PM 38.3500 -77.4167 90° East 143 165 900 -120 Descending Potomac TRACON